sensor_id;sensor_type;location;lat;lon;timestamp;P1;durP1;ratioP1;P2;durP2;ratioP2
27201;SDS011;14717;46.924;15.474;2023-05-10T00:01:39;7.15;;;4.03;;
27201;SDS011;14717;46.924;15.474;2023-05-10T00:04:05;8.35;;;4.63;;
27201;SDS011;14717;46.924;15.474;2023-05-10T00:06:31;8.45;;;4.15;;
27201;SDS011;14717;46.924;15.474;2023-05-10T00:08:56;8.68;;;4.72;;
27201;SDS011;14717;46.924;15.474;2023-05-10T00:11:22;17.17;;;9.00;;
27201;SDS011;14717;46.924;15.474;2023-05-10T00:13:47;35.10;;;17.40;;
27201;SDS011;14717;46.924;15.474;2023-05-10T00:16:13;29.83;;;15.00;;
27201;SDS011;14717;46.924;15.474;2023-05-10T00:18:38;36.15;;;18.77;;
27201;SDS011;14717;46.924;15.474;2023-05-10T00:21:04;36.05;;;16.70;;
27201;SDS011;14717;46.924;15.474;2023-05-10T00:23:30;52.25;;;20.40;;
27201;SDS011;14717;46.924;15.474;2023-05-10T00:25:56;62.65;;;20.13;;
27201;SDS011;14717;46.924;15.474;2023-05-10T00:28:21;54.65;;;18.55;;
27201;SDS011;14717;46.924;15.474;2023-05-10T00:30:47;45.05;;;17.63;;
27201;SDS011;14717;46.924;15.474;2023-05-10T00:33:12;51.05;;;18.38;;
27201;SDS011;14717;46.924;15.474;2023-05-10T00:35:37;44.60;;;15.55;;
27201;SDS011;14717;46.924;15.474;2023-05-10T00:38:03;44.90;;;15.38;;
27201;SDS011;14717;46.924;15.474;2023-05-10T00:40:29;31.63;;;12.68;;
27201;SDS011;14717;46.924;15.474;2023-05-10T00:42:55;26.17;;;10.63;;
27201;SDS011;14717;46.924;15.474;2023-05-10T00:45:21;26.17;;;9.35;;
27201;SDS011;14717;46.924;15.474;2023-05-10T00:47:47;18.20;;;7.70;;
27201;SDS011;14717;46.924;15.474;2023-05-10T00:50:12;15.23;;;7.07;;
27201;SDS011;14717;46.924;15.474;2023-05-10T00:52:39;20.05;;;8.77;;
27201;SDS011;14717;46.924;15.474;2023-05-10T00:55:05;25.48;;;9.80;;
27201;SDS011;14717;46.924;15.474;2023-05-10T00:57:31;22.67;;;9.88;;
27201;SDS011;14717;46.924;15.474;2023-05-10T00:59:57;19.98;;;7.80;;
27201;SDS011;14717;46.924;15.474;2023-05-10T01:02:24;16.67;;;7.28;;
27201;SDS011;14717;46.924;15.474;2023-05-10T01:04:49;10.25;;;4.43;;
27201;SDS011;14717;46.924;15.474;2023-05-10T01:07:15;13.05;;;5.15;;
27201;SDS011;14717;46.924;15.474;2023-05-10T01:09:40;6.90;;;3.65;;
27201;SDS011;14717;46.924;15.474;2023-05-10T01:12:06;6.63;;;4.18;;
27201;SDS011;14717;46.924;15.474;2023-05-10T01:14:32;6.07;;;3.38;;
27201;SDS011;14717;46.924;15.474;2023-05-10T01:16:59;8.82;;;3.92;;
27201;SDS011;14717;46.924;15.474;2023-05-10T01:21:56;6.22;;;3.85;;
27201;SDS011;14717;46.924;15.474;2023-05-10T01:27:14;8.48;;;3.40;;
27201;SDS011;14717;46.924;15.474;2023-05-10T01:32:27;6.43;;;4.18;;
27201;SDS011;14717;46.924;15.474;2023-05-10T01:35:10;8.23;;;3.50;;
27201;SDS011;14717;46.924;15.474;2023-05-10T01:37:46;5.57;;;3.08;;
27201;SDS011;14717;46.924;15.474;2023-05-10T01:40:19;6.32;;;3.92;;
27201;SDS011;14717;46.924;15.474;2023-05-10T01:43:01;8.43;;;4.38;;
27201;SDS011;14717;46.924;15.474;2023-05-10T01:45:33;7.80;;;4.28;;
27201;SDS011;14717;46.924;15.474;2023-05-10T01:48:12;7.07;;;4.18;;
27201;SDS011;14717;46.924;15.474;2023-05-10T01:50:41;10.98;;;4.60;;
27201;SDS011;14717;46.924;15.474;2023-05-10T01:53:10;7.00;;;4.07;;
27201;SDS011;14717;46.924;15.474;2023-05-10T01:55:51;7.32;;;4.13;;
27201;SDS011;14717;46.924;15.474;2023-05-10T01:58:20;9.43;;;3.92;;
27201;SDS011;14717;46.924;15.474;2023-05-10T02:00:49;7.43;;;3.88;;
27201;SDS011;14717;46.924;15.474;2023-05-10T02:03:17;8.80;;;3.90;;
27201;SDS011;14717;46.924;15.474;2023-05-10T02:05:48;7.40;;;3.92;;
27201;SDS011;14717;46.924;15.474;2023-05-10T02:08:14;6.95;;;3.95;;
27201;SDS011;14717;46.924;15.474;2023-05-10T02:10:42;9.88;;;4.35;;
27201;SDS011;14717;46.924;15.474;2023-05-10T02:13:10;7.25;;;3.72;;
27201;SDS011;14717;46.924;15.474;2023-05-10T02:15:36;6.75;;;3.50;;
27201;SDS011;14717;46.924;15.474;2023-05-10T02:18:03;8.43;;;3.55;;
27201;SDS011;14717;46.924;15.474;2023-05-10T02:20:30;8.10;;;3.80;;
27201;SDS011;14717;46.924;15.474;2023-05-10T02:22:57;6.30;;;3.60;;
27201;SDS011;14717;46.924;15.474;2023-05-10T02:25:23;7.72;;;3.58;;
27201;SDS011;14717;46.924;15.474;2023-05-10T02:27:51;7.35;;;3.60;;
27201;SDS011;14717;46.924;15.474;2023-05-10T02:30:19;8.80;;;4.20;;
27201;SDS011;14717;46.924;15.474;2023-05-10T02:32:46;7.63;;;3.95;;
27201;SDS011;14717;46.924;15.474;2023-05-10T02:35:13;7.80;;;3.90;;
27201;SDS011;14717;46.924;15.474;2023-05-10T02:37:40;6.13;;;3.63;;
27201;SDS011;14717;46.924;15.474;2023-05-10T02:40:06;7.25;;;3.80;;
27201;SDS011;14717;46.924;15.474;2023-05-10T02:42:35;5.97;;;3.15;;
27201;SDS011;14717;46.924;15.474;2023-05-10T02:45:02;5.93;;;3.17;;
27201;SDS011;14717;46.924;15.474;2023-05-10T02:47:33;7.50;;;3.40;;
27201;SDS011;14717;46.924;15.474;2023-05-10T02:49:59;5.95;;;3.53;;
27201;SDS011;14717;46.924;15.474;2023-05-10T02:52:25;6.28;;;3.75;;
27201;SDS011;14717;46.924;15.474;2023-05-10T02:54:55;5.28;;;3.25;;
27201;SDS011;14717;46.924;15.474;2023-05-10T02:57:28;8.30;;;3.40;;
27201;SDS011;14717;46.924;15.474;2023-05-10T02:59:58;8.35;;;3.38;;
27201;SDS011;14717;46.924;15.474;2023-05-10T03:02:25;8.43;;;3.60;;
27201;SDS011;14717;46.924;15.474;2023-05-10T03:04:51;6.97;;;3.58;;
27201;SDS011;14717;46.924;15.474;2023-05-10T03:07:16;7.45;;;3.42;;
27201;SDS011;14717;46.924;15.474;2023-05-10T03:09:44;6.18;;;3.45;;
27201;SDS011;14717;46.924;15.474;2023-05-10T03:20:26;6.05;;;3.22;;
27201;SDS011;14717;46.924;15.474;2023-05-10T03:23:00;5.93;;;3.42;;
27201;SDS011;14717;46.924;15.474;2023-05-10T03:25:30;6.72;;;3.08;;
27201;SDS011;14717;46.924;15.474;2023-05-10T03:27:56;10.57;;;3.63;;
27201;SDS011;14717;46.924;15.474;2023-05-10T03:30:22;5.68;;;3.30;;
27201;SDS011;14717;46.924;15.474;2023-05-10T03:32:49;6.55;;;3.47;;
27201;SDS011;14717;46.924;15.474;2023-05-10T03:35:15;5.70;;;3.53;;
27201;SDS011;14717;46.924;15.474;2023-05-10T03:37:40;6.90;;;3.53;;
27201;SDS011;14717;46.924;15.474;2023-05-10T03:40:06;8.48;;;4.25;;
27201;SDS011;14717;46.924;15.474;2023-05-10T03:44:57;6.10;;;3.43;;
27201;SDS011;14717;46.924;15.474;2023-05-10T03:47:23;8.63;;;3.88;;
27201;SDS011;14717;46.924;15.474;2023-05-10T03:49:48;7.15;;;3.85;;
27201;SDS011;14717;46.924;15.474;2023-05-10T03:52:13;8.77;;;4.00;;
27201;SDS011;14717;46.924;15.474;2023-05-10T03:54:39;8.07;;;4.43;;
27201;SDS011;14717;46.924;15.474;2023-05-10T03:57:04;7.18;;;3.83;;
27201;SDS011;14717;46.924;15.474;2023-05-10T03:59:30;5.68;;;3.10;;
27201;SDS011;14717;46.924;15.474;2023-05-10T04:01:55;7.68;;;3.75;;
27201;SDS011;14717;46.924;15.474;2023-05-10T04:04:21;8.40;;;3.72;;
27201;SDS011;14717;46.924;15.474;2023-05-10T04:06:47;8.60;;;3.95;;
27201;SDS011;14717;46.924;15.474;2023-05-10T04:09:12;7.13;;;3.72;;
27201;SDS011;14717;46.924;15.474;2023-05-10T04:11:38;9.60;;;5.00;;
27201;SDS011;14717;46.924;15.474;2023-05-10T04:14:03;21.65;;;9.25;;
27201;SDS011;14717;46.924;15.474;2023-05-10T04:16:29;13.00;;;5.93;;
27201;SDS011;14717;46.924;15.474;2023-05-10T04:18:54;8.52;;;4.53;;
27201;SDS011;14717;46.924;15.474;2023-05-10T04:21:20;9.52;;;4.53;;
27201;SDS011;14717;46.924;15.474;2023-05-10T04:23:45;9.65;;;4.70;;
27201;SDS011;14717;46.924;15.474;2023-05-10T04:26:10;9.15;;;4.30;;
27201;SDS011;14717;46.924;15.474;2023-05-10T04:28:36;9.75;;;4.63;;
27201;SDS011;14717;46.924;15.474;2023-05-10T04:31:06;8.32;;;4.20;;
27201;SDS011;14717;46.924;15.474;2023-05-10T04:33:32;7.40;;;4.10;;
27201;SDS011;14717;46.924;15.474;2023-05-10T04:35:58;8.80;;;4.65;;
27201;SDS011;14717;46.924;15.474;2023-05-10T04:38:24;8.65;;;4.25;;
27201;SDS011;14717;46.924;15.474;2023-05-10T04:40:50;9.07;;;4.47;;
27201;SDS011;14717;46.924;15.474;2023-05-10T04:43:15;6.85;;;4.13;;
27201;SDS011;14717;46.924;15.474;2023-05-10T04:45:41;6.75;;;4.18;;
27201;SDS011;14717;46.924;15.474;2023-05-10T04:48:06;10.95;;;4.68;;
27201;SDS011;14717;46.924;15.474;2023-05-10T04:50:32;6.90;;;4.38;;
27201;SDS011;14717;46.924;15.474;2023-05-10T04:52:58;7.90;;;4.35;;
27201;SDS011;14717;46.924;15.474;2023-05-10T04:55:23;10.77;;;4.80;;
27201;SDS011;14717;46.924;15.474;2023-05-10T04:57:48;13.45;;;5.45;;
27201;SDS011;14717;46.924;15.474;2023-05-10T05:00:14;8.25;;;4.15;;
27201;SDS011;14717;46.924;15.474;2023-05-10T05:02:43;7.63;;;4.57;;
27201;SDS011;14717;46.924;15.474;2023-05-10T05:05:10;10.60;;;5.18;;
27201;SDS011;14717;46.924;15.474;2023-05-10T05:07:35;9.48;;;4.85;;
27201;SDS011;14717;46.924;15.474;2023-05-10T05:10:01;7.43;;;4.70;;
27201;SDS011;14717;46.924;15.474;2023-05-10T05:12:26;8.30;;;5.20;;
27201;SDS011;14717;46.924;15.474;2023-05-10T05:14:51;9.15;;;4.72;;
27201;SDS011;14717;46.924;15.474;2023-05-10T05:17:17;7.82;;;4.63;;
27201;SDS011;14717;46.924;15.474;2023-05-10T05:19:42;9.80;;;4.65;;
27201;SDS011;14717;46.924;15.474;2023-05-10T05:22:07;9.55;;;5.13;;
27201;SDS011;14717;46.924;15.474;2023-05-10T05:24:36;9.98;;;4.95;;
27201;SDS011;14717;46.924;15.474;2023-05-10T05:27:03;15.32;;;5.57;;
27201;SDS011;14717;46.924;15.474;2023-05-10T05:29:28;16.33;;;5.35;;
27201;SDS011;14717;46.924;15.474;2023-05-10T05:31:54;12.50;;;4.95;;
27201;SDS011;14717;46.924;15.474;2023-05-10T05:34:19;12.75;;;5.40;;
27201;SDS011;14717;46.924;15.474;2023-05-10T05:36:45;7.75;;;4.47;;
27201;SDS011;14717;46.924;15.474;2023-05-10T05:39:11;9.15;;;4.80;;
27201;SDS011;14717;46.924;15.474;2023-05-10T05:41:36;11.73;;;4.40;;
27201;SDS011;14717;46.924;15.474;2023-05-10T05:44:01;7.93;;;4.72;;
27201;SDS011;14717;46.924;15.474;2023-05-10T05:46:27;7.35;;;4.45;;
27201;SDS011;14717;46.924;15.474;2023-05-10T05:48:52;9.23;;;4.63;;
27201;SDS011;14717;46.924;15.474;2023-05-10T05:51:17;13.13;;;5.22;;
27201;SDS011;14717;46.924;15.474;2023-05-10T05:53:43;8.20;;;4.70;;
27201;SDS011;14717;46.924;15.474;2023-05-10T05:56:08;9.07;;;5.18;;
27201;SDS011;14717;46.924;15.474;2023-05-10T05:58:34;8.20;;;4.35;;
27201;SDS011;14717;46.924;15.474;2023-05-10T06:01:00;11.10;;;4.90;;
27201;SDS011;14717;46.924;15.474;2023-05-10T06:03:25;11.00;;;4.88;;
27201;SDS011;14717;46.924;15.474;2023-05-10T06:05:50;10.98;;;5.22;;
27201;SDS011;14717;46.924;15.474;2023-05-10T06:08:16;13.50;;;5.38;;
27201;SDS011;14717;46.924;15.474;2023-05-10T06:10:41;8.95;;;5.10;;
27201;SDS011;14717;46.924;15.474;2023-05-10T06:13:07;8.65;;;5.78;;
27201;SDS011;14717;46.924;15.474;2023-05-10T06:15:32;8.18;;;4.82;;
27201;SDS011;14717;46.924;15.474;2023-05-10T06:17:58;8.93;;;4.93;;
27201;SDS011;14717;46.924;15.474;2023-05-10T06:20:23;17.38;;;5.18;;
27201;SDS011;14717;46.924;15.474;2023-05-10T06:22:49;8.95;;;5.38;;
27201;SDS011;14717;46.924;15.474;2023-05-10T06:25:14;8.10;;;4.47;;
27201;SDS011;14717;46.924;15.474;2023-05-10T06:27:42;10.15;;;5.35;;
27201;SDS011;14717;46.924;15.474;2023-05-10T06:30:08;7.78;;;4.70;;
27201;SDS011;14717;46.924;15.474;2023-05-10T06:32:34;10.75;;;5.13;;
27201;SDS011;14717;46.924;15.474;2023-05-10T06:34:59;9.25;;;5.25;;
27201;SDS011;14717;46.924;15.474;2023-05-10T06:37:25;9.23;;;4.85;;
27201;SDS011;14717;46.924;15.474;2023-05-10T06:39:51;13.52;;;5.50;;
27201;SDS011;14717;46.924;15.474;2023-05-10T06:42:16;10.68;;;5.15;;
27201;SDS011;14717;46.924;15.474;2023-05-10T06:44:42;8.25;;;5.22;;
27201;SDS011;14717;46.924;15.474;2023-05-10T06:47:08;10.50;;;5.43;;
27201;SDS011;14717;46.924;15.474;2023-05-10T06:49:34;11.02;;;5.40;;
27201;SDS011;14717;46.924;15.474;2023-05-10T06:51:59;11.27;;;5.15;;
27201;SDS011;14717;46.924;15.474;2023-05-10T06:54:24;11.30;;;5.68;;
27201;SDS011;14717;46.924;15.474;2023-05-10T06:56:50;12.27;;;5.82;;
27201;SDS011;14717;46.924;15.474;2023-05-10T06:59:15;15.77;;;5.72;;
27201;SDS011;14717;46.924;15.474;2023-05-10T07:01:41;8.65;;;5.20;;
27201;SDS011;14717;46.924;15.474;2023-05-10T07:04:07;10.10;;;5.18;;
27201;SDS011;14717;46.924;15.474;2023-05-10T07:06:33;11.45;;;5.38;;
27201;SDS011;14717;46.924;15.474;2023-05-10T07:08:58;11.50;;;5.75;;
27201;SDS011;14717;46.924;15.474;2023-05-10T07:11:24;10.50;;;5.25;;
27201;SDS011;14717;46.924;15.474;2023-05-10T07:13:49;9.30;;;5.40;;
27201;SDS011;14717;46.924;15.474;2023-05-10T07:16:15;9.43;;;5.03;;
27201;SDS011;14717;46.924;15.474;2023-05-10T07:18:40;13.20;;;5.28;;
27201;SDS011;14717;46.924;15.474;2023-05-10T07:21:06;10.50;;;5.18;;
27201;SDS011;14717;46.924;15.474;2023-05-10T07:23:31;10.30;;;5.45;;
27201;SDS011;14717;46.924;15.474;2023-05-10T07:25:57;11.00;;;5.45;;
27201;SDS011;14717;46.924;15.474;2023-05-10T07:28:22;10.40;;;5.25;;
27201;SDS011;14717;46.924;15.474;2023-05-10T07:30:51;10.18;;;5.60;;
27201;SDS011;14717;46.924;15.474;2023-05-10T07:33:17;10.68;;;5.55;;
27201;SDS011;14717;46.924;15.474;2023-05-10T07:35:42;7.88;;;4.70;;
27201;SDS011;14717;46.924;15.474;2023-05-10T07:38:08;11.48;;;5.72;;
27201;SDS011;14717;46.924;15.474;2023-05-10T07:40:35;9.20;;;5.60;;
27201;SDS011;14717;46.924;15.474;2023-05-10T07:43:01;11.60;;;5.00;;
27201;SDS011;14717;46.924;15.474;2023-05-10T07:45:27;9.27;;;5.55;;
27201;SDS011;14717;46.924;15.474;2023-05-10T07:47:53;10.55;;;5.40;;
27201;SDS011;14717;46.924;15.474;2023-05-10T07:50:18;9.88;;;5.38;;
27201;SDS011;14717;46.924;15.474;2023-05-10T07:55:09;9.75;;;6.18;;
27201;SDS011;14717;46.924;15.474;2023-05-10T07:57:35;11.40;;;5.45;;
27201;SDS011;14717;46.924;15.474;2023-05-10T08:00:01;10.80;;;5.53;;
27201;SDS011;14717;46.924;15.474;2023-05-10T08:02:27;9.73;;;5.53;;
27201;SDS011;14717;46.924;15.474;2023-05-10T08:07:18;11.50;;;5.25;;
27201;SDS011;14717;46.924;15.474;2023-05-10T08:09:43;8.40;;;4.88;;
27201;SDS011;14717;46.924;15.474;2023-05-10T08:14:34;9.63;;;4.97;;
27201;SDS011;14717;46.924;15.474;2023-05-10T08:17:01;10.73;;;4.93;;
27201;SDS011;14717;46.924;15.474;2023-05-10T08:19:28;10.13;;;5.78;;
27201;SDS011;14717;46.924;15.474;2023-05-10T08:24:20;10.30;;;5.90;;
27201;SDS011;14717;46.924;15.474;2023-05-10T08:29:12;10.63;;;5.43;;
27201;SDS011;14717;46.924;15.474;2023-05-10T08:34:03;8.23;;;5.00;;
27201;SDS011;14717;46.924;15.474;2023-05-10T08:38:53;9.03;;;5.10;;
27201;SDS011;14717;46.924;15.474;2023-05-10T08:41:19;9.68;;;4.78;;
27201;SDS011;14717;46.924;15.474;2023-05-10T08:43:46;9.15;;;4.78;;
27201;SDS011;14717;46.924;15.474;2023-05-10T08:48:40;9.20;;;4.78;;
27201;SDS011;14717;46.924;15.474;2023-05-10T08:51:06;10.07;;;4.78;;
27201;SDS011;14717;46.924;15.474;2023-05-10T08:53:34;9.27;;;5.00;;
27201;SDS011;14717;46.924;15.474;2023-05-10T08:56:02;7.05;;;4.35;;
27201;SDS011;14717;46.924;15.474;2023-05-10T08:58:28;7.93;;;4.68;;
27201;SDS011;14717;46.924;15.474;2023-05-10T09:03:19;12.65;;;4.32;;
27201;SDS011;14717;46.924;15.474;2023-05-10T09:05:45;7.72;;;4.18;;
27201;SDS011;14717;46.924;15.474;2023-05-10T09:10:37;5.85;;;3.80;;
27201;SDS011;14717;46.924;15.474;2023-05-10T09:13:04;7.43;;;3.78;;
27201;SDS011;14717;46.924;15.474;2023-05-10T09:17:55;5.70;;;3.30;;
27201;SDS011;14717;46.924;15.474;2023-05-10T09:20:23;6.68;;;3.45;;
27201;SDS011;14717;46.924;15.474;2023-05-10T09:22:49;6.10;;;3.70;;
27201;SDS011;14717;46.924;15.474;2023-05-10T09:27:41;5.75;;;2.85;;
27201;SDS011;14717;46.924;15.474;2023-05-10T09:30:10;5.65;;;2.95;;
27201;SDS011;14717;46.924;15.474;2023-05-10T09:32:41;6.35;;;3.40;;
27201;SDS011;14717;46.924;15.474;2023-05-10T09:35:11;5.78;;;3.50;;
27201;SDS011;14717;46.924;15.474;2023-05-10T09:37:41;6.20;;;3.70;;
27201;SDS011;14717;46.924;15.474;2023-05-10T09:40:11;7.20;;;3.60;;
27201;SDS011;14717;46.924;15.474;2023-05-10T09:42:38;7.55;;;3.85;;
27201;SDS011;14717;46.924;15.474;2023-05-10T09:45:04;5.82;;;3.42;;
27201;SDS011;14717;46.924;15.474;2023-05-10T09:47:34;6.70;;;3.40;;
27201;SDS011;14717;46.924;15.474;2023-05-10T09:50:00;8.65;;;4.00;;
27201;SDS011;14717;46.924;15.474;2023-05-10T09:52:30;9.75;;;3.40;;
27201;SDS011;14717;46.924;15.474;2023-05-10T09:55:10;6.82;;;3.45;;
27201;SDS011;14717;46.924;15.474;2023-05-10T09:57:35;6.28;;;3.78;;
27201;SDS011;14717;46.924;15.474;2023-05-10T10:00:01;9.07;;;3.88;;
27201;SDS011;14717;46.924;15.474;2023-05-10T10:02:29;6.35;;;3.88;;
27201;SDS011;14717;46.924;15.474;2023-05-10T10:04:56;5.95;;;3.60;;
27201;SDS011;14717;46.924;15.474;2023-05-10T10:07:22;5.93;;;3.88;;
27201;SDS011;14717;46.924;15.474;2023-05-10T10:09:51;5.72;;;3.65;;
27201;SDS011;14717;46.924;15.474;2023-05-10T10:12:18;7.25;;;4.15;;
27201;SDS011;14717;46.924;15.474;2023-05-10T10:14:44;6.00;;;3.85;;
27201;SDS011;14717;46.924;15.474;2023-05-10T10:17:11;5.80;;;3.97;;
27201;SDS011;14717;46.924;15.474;2023-05-10T10:19:37;5.63;;;3.40;;
27201;SDS011;14717;46.924;15.474;2023-05-10T10:22:03;6.50;;;3.83;;
27201;SDS011;14717;46.924;15.474;2023-05-10T10:24:28;6.35;;;4.35;;
27201;SDS011;14717;46.924;15.474;2023-05-10T10:26:54;8.85;;;4.55;;
27201;SDS011;14717;46.924;15.474;2023-05-10T10:29:24;5.90;;;3.72;;
27201;SDS011;14717;46.924;15.474;2023-05-10T10:34:41;7.15;;;3.70;;
27201;SDS011;14717;46.924;15.474;2023-05-10T10:37:07;4.53;;;3.35;;
27201;SDS011;14717;46.924;15.474;2023-05-10T10:39:32;5.68;;;3.60;;
27201;SDS011;14717;46.924;15.474;2023-05-10T10:42:01;5.47;;;2.92;;
27201;SDS011;14717;46.924;15.474;2023-05-10T10:47:00;4.95;;;3.20;;
27201;SDS011;14717;46.924;15.474;2023-05-10T10:52:24;5.13;;;3.17;;
27201;SDS011;14717;46.924;15.474;2023-05-10T10:54:58;5.30;;;3.40;;
27201;SDS011;14717;46.924;15.474;2023-05-10T11:00:25;5.43;;;3.15;;
27201;SDS011;14717;46.924;15.474;2023-05-10T11:03:11;5.28;;;3.47;;
27201;SDS011;14717;46.924;15.474;2023-05-10T11:05:40;7.50;;;3.40;;
27201;SDS011;14717;46.924;15.474;2023-05-10T11:08:13;6.55;;;3.80;;
27201;SDS011;14717;46.924;15.474;2023-05-10T11:10:52;5.95;;;3.63;;
27201;SDS011;14717;46.924;15.474;2023-05-10T11:13:45;8.95;;;3.40;;
27201;SDS011;14717;46.924;15.474;2023-05-10T11:16:17;6.20;;;3.53;;
27201;SDS011;14717;46.924;15.474;2023-05-10T11:19:02;4.82;;;2.92;;
27201;SDS011;14717;46.924;15.474;2023-05-10T11:21:31;6.68;;;3.70;;
27201;SDS011;14717;46.924;15.474;2023-05-10T11:23:59;5.90;;;3.13;;
27201;SDS011;14717;46.924;15.474;2023-05-10T11:26:29;5.47;;;3.25;;
27201;SDS011;14717;46.924;15.474;2023-05-10T11:28:56;5.05;;;3.20;;
27201;SDS011;14717;46.924;15.474;2023-05-10T11:31:24;5.40;;;3.10;;
27201;SDS011;14717;46.924;15.474;2023-05-10T11:33:55;4.65;;;2.70;;
27201;SDS011;14717;46.924;15.474;2023-05-10T11:38:51;9.23;;;3.20;;
27201;SDS011;14717;46.924;15.474;2023-05-10T11:41:18;5.63;;;3.00;;
27201;SDS011;14717;46.924;15.474;2023-05-10T11:43:46;5.78;;;3.05;;
27201;SDS011;14717;46.924;15.474;2023-05-10T11:46:14;5.20;;;3.20;;
27201;SDS011;14717;46.924;15.474;2023-05-10T11:48:40;3.95;;;2.92;;
27201;SDS011;14717;46.924;15.474;2023-05-10T11:51:07;5.22;;;3.30;;
27201;SDS011;14717;46.924;15.474;2023-05-10T11:53:32;5.32;;;2.85;;
27201;SDS011;14717;46.924;15.474;2023-05-10T11:56:10;8.02;;;3.90;;
27201;SDS011;14717;46.924;15.474;2023-05-10T11:58:37;6.55;;;3.60;;
27201;SDS011;14717;46.924;15.474;2023-05-10T12:01:04;5.68;;;3.28;;
27201;SDS011;14717;46.924;15.474;2023-05-10T12:03:30;4.80;;;3.40;;
27201;SDS011;14717;46.924;15.474;2023-05-10T12:05:56;5.32;;;3.70;;
27201;SDS011;14717;46.924;15.474;2023-05-10T12:08:23;7.72;;;3.80;;
27201;SDS011;14717;46.924;15.474;2023-05-10T12:10:53;4.90;;;3.42;;
27201;SDS011;14717;46.924;15.474;2023-05-10T12:13:29;5.60;;;3.67;;
27201;SDS011;14717;46.924;15.474;2023-05-10T12:15:57;8.50;;;4.07;;
27201;SDS011;14717;46.924;15.474;2023-05-10T12:18:23;5.50;;;3.38;;
27201;SDS011;14717;46.924;15.474;2023-05-10T12:20:52;7.93;;;3.47;;
27201;SDS011;14717;46.924;15.474;2023-05-10T12:23:18;5.25;;;3.90;;
27201;SDS011;14717;46.924;15.474;2023-05-10T12:25:45;5.80;;;3.50;;
27201;SDS011;14717;46.924;15.474;2023-05-10T12:28:10;6.15;;;3.25;;
27201;SDS011;14717;46.924;15.474;2023-05-10T12:30:36;5.55;;;3.63;;
27201;SDS011;14717;46.924;15.474;2023-05-10T12:33:12;6.93;;;3.42;;
27201;SDS011;14717;46.924;15.474;2023-05-10T12:35:43;6.43;;;3.60;;
27201;SDS011;14717;46.924;15.474;2023-05-10T12:40:59;8.15;;;3.47;;
27201;SDS011;14717;46.924;15.474;2023-05-10T12:43:26;14.05;;;4.25;;
27201;SDS011;14717;46.924;15.474;2023-05-10T12:45:51;5.97;;;3.42;;
27201;SDS011;14717;46.924;15.474;2023-05-10T12:48:17;6.22;;;3.47;;
27201;SDS011;14717;46.924;15.474;2023-05-10T12:50:43;5.32;;;3.35;;
27201;SDS011;14717;46.924;15.474;2023-05-10T12:53:08;6.22;;;3.20;;
27201;SDS011;14717;46.924;15.474;2023-05-10T12:55:33;8.15;;;3.70;;
27201;SDS011;14717;46.924;15.474;2023-05-10T12:57:59;6.40;;;3.47;;
27201;SDS011;14717;46.924;15.474;2023-05-10T13:00:25;4.13;;;3.30;;
27201;SDS011;14717;46.924;15.474;2023-05-10T13:02:50;5.00;;;3.47;;
27201;SDS011;14717;46.924;15.474;2023-05-10T13:05:16;6.03;;;3.60;;
27201;SDS011;14717;46.924;15.474;2023-05-10T13:07:41;7.30;;;3.88;;
27201;SDS011;14717;46.924;15.474;2023-05-10T13:10:08;5.28;;;3.35;;
27201;SDS011;14717;46.924;15.474;2023-05-10T13:12:35;4.78;;;2.97;;
27201;SDS011;14717;46.924;15.474;2023-05-10T13:15:00;5.40;;;3.60;;
27201;SDS011;14717;46.924;15.474;2023-05-10T13:17:26;5.18;;;3.20;;
27201;SDS011;14717;46.924;15.474;2023-05-10T13:19:51;5.18;;;3.55;;
27201;SDS011;14717;46.924;15.474;2023-05-10T13:22:17;4.63;;;3.20;;
27201;SDS011;14717;46.924;15.474;2023-05-10T13:24:42;7.55;;;3.72;;
27201;SDS011;14717;46.924;15.474;2023-05-10T13:27:08;6.13;;;3.65;;
27201;SDS011;14717;46.924;15.474;2023-05-10T13:29:33;5.93;;;3.30;;
27201;SDS011;14717;46.924;15.474;2023-05-10T13:31:59;5.22;;;3.20;;
27201;SDS011;14717;46.924;15.474;2023-05-10T13:34:24;5.30;;;2.80;;
27201;SDS011;14717;46.924;15.474;2023-05-10T13:36:50;4.53;;;2.80;;
27201;SDS011;14717;46.924;15.474;2023-05-10T13:39:15;3.60;;;2.63;;
27201;SDS011;14717;46.924;15.474;2023-05-10T13:41:41;5.28;;;3.25;;
27201;SDS011;14717;46.924;15.474;2023-05-10T13:44:06;4.38;;;3.13;;
27201;SDS011;14717;46.924;15.474;2023-05-10T13:46:32;6.95;;;3.28;;
27201;SDS011;14717;46.924;15.474;2023-05-10T13:48:57;4.07;;;3.15;;
27201;SDS011;14717;46.924;15.474;2023-05-10T13:51:23;4.57;;;2.83;;
27201;SDS011;14717;46.924;15.474;2023-05-10T13:53:48;3.85;;;2.92;;
27201;SDS011;14717;46.924;15.474;2023-05-10T13:56:13;6.60;;;3.20;;
27201;SDS011;14717;46.924;15.474;2023-05-10T13:58:39;6.88;;;3.70;;
27201;SDS011;14717;46.924;15.474;2023-05-10T14:01:05;6.10;;;2.92;;
27201;SDS011;14717;46.924;15.474;2023-05-10T14:03:30;7.10;;;3.50;;
27201;SDS011;14717;46.924;15.474;2023-05-10T14:05:56;5.68;;;3.13;;
27201;SDS011;14717;46.924;15.474;2023-05-10T14:08:21;4.78;;;3.30;;
27201;SDS011;14717;46.924;15.474;2023-05-10T14:10:47;4.43;;;3.10;;
27201;SDS011;14717;46.924;15.474;2023-05-10T14:13:13;4.80;;;2.95;;
27201;SDS011;14717;46.924;15.474;2023-05-10T14:15:40;4.70;;;3.40;;
27201;SDS011;14717;46.924;15.474;2023-05-10T14:18:05;5.90;;;2.80;;
27201;SDS011;14717;46.924;15.474;2023-05-10T14:20:31;4.95;;;2.65;;
27201;SDS011;14717;46.924;15.474;2023-05-10T14:22:58;4.00;;;2.80;;
27201;SDS011;14717;46.924;15.474;2023-05-10T14:25:24;3.75;;;2.97;;
27201;SDS011;14717;46.924;15.474;2023-05-10T14:27:49;4.68;;;3.08;;
27201;SDS011;14717;46.924;15.474;2023-05-10T14:30:15;4.30;;;2.85;;
27201;SDS011;14717;46.924;15.474;2023-05-10T14:32:41;5.05;;;2.92;;
27201;SDS011;14717;46.924;15.474;2023-05-10T14:35:06;4.32;;;2.88;;
27201;SDS011;14717;46.924;15.474;2023-05-10T14:37:32;4.13;;;2.60;;
27201;SDS011;14717;46.924;15.474;2023-05-10T14:39:58;5.47;;;2.60;;
27201;SDS011;14717;46.924;15.474;2023-05-10T14:42:23;3.80;;;2.92;;
27201;SDS011;14717;46.924;15.474;2023-05-10T14:44:48;4.13;;;2.70;;
27201;SDS011;14717;46.924;15.474;2023-05-10T14:47:14;3.83;;;2.50;;
27201;SDS011;14717;46.924;15.474;2023-05-10T14:49:39;4.28;;;2.60;;
27201;SDS011;14717;46.924;15.474;2023-05-10T14:52:05;3.95;;;2.40;;
27201;SDS011;14717;46.924;15.474;2023-05-10T14:54:31;3.40;;;2.50;;
27201;SDS011;14717;46.924;15.474;2023-05-10T14:56:58;3.80;;;2.13;;
27201;SDS011;14717;46.924;15.474;2023-05-10T14:59:24;3.92;;;2.10;;
27201;SDS011;14717;46.924;15.474;2023-05-10T15:01:49;3.38;;;2.30;;
27201;SDS011;14717;46.924;15.474;2023-05-10T15:04:14;3.10;;;2.10;;
27201;SDS011;14717;46.924;15.474;2023-05-10T15:06:41;4.50;;;2.28;;
27201;SDS011;14717;46.924;15.474;2023-05-10T15:09:06;2.80;;;2.00;;
27201;SDS011;14717;46.924;15.474;2023-05-10T15:11:32;3.33;;;2.00;;
27201;SDS011;14717;46.924;15.474;2023-05-10T15:13:57;4.40;;;2.08;;
27201;SDS011;14717;46.924;15.474;2023-05-10T15:16:23;3.50;;;1.92;;
27201;SDS011;14717;46.924;15.474;2023-05-10T15:18:48;3.58;;;1.73;;
27201;SDS011;14717;46.924;15.474;2023-05-10T15:21:13;3.40;;;1.92;;
27201;SDS011;14717;46.924;15.474;2023-05-10T15:23:39;2.78;;;1.67;;
27201;SDS011;14717;46.924;15.474;2023-05-10T15:26:04;4.05;;;2.00;;
27201;SDS011;14717;46.924;15.474;2023-05-10T15:28:30;3.10;;;1.63;;
27201;SDS011;14717;46.924;15.474;2023-05-10T15:30:55;7.43;;;1.90;;
27201;SDS011;14717;46.924;15.474;2023-05-10T15:33:21;3.63;;;2.08;;